createdAt,value
2022-11-21T00:00:53.886Z,49.22
2022-11-21T00:03:20.934Z,49.08
2022-11-21T00:05:48.627Z,50.63
2022-11-21T00:08:21.127Z,45.17
2022-11-21T00:10:47.722Z,43.05
2022-11-21T00:13:16.380Z,45.63
2022-11-21T00:15:42.963Z,45.67
2022-11-21T00:18:11.423Z,47.03
2022-11-21T00:20:37.912Z,46.08
2022-11-21T00:23:04.732Z,42.90
2022-11-21T00:25:31.519Z,45.92
2022-11-21T00:27:57.947Z,44.35
2022-11-21T00:30:24.402Z,41.85
2022-11-21T00:32:51.017Z,45.55
2022-11-21T00:35:17.552Z,45.72
2022-11-21T00:37:44.027Z,44.28
2022-11-21T00:40:11.005Z,42.67
2022-11-21T00:42:37.383Z,41.05
2022-11-21T00:45:03.968Z,41.90
2022-11-21T00:47:30.344Z,44.63
2022-11-21T00:49:56.713Z,42.20
2022-11-21T00:52:23.143Z,42.40
2022-11-21T00:54:49.616Z,38.85
2022-11-21T00:57:16.009Z,42.63
2022-11-21T00:59:42.365Z,40.88
2022-11-21T01:02:08.850Z,45.13
2022-11-21T01:04:35.676Z,44.35
2022-11-21T01:07:02.136Z,41.65
2022-11-21T01:09:28.744Z,42.13
2022-11-21T01:11:56.378Z,45.85
2022-11-21T01:14:23.451Z,40.03
2022-11-21T01:16:49.864Z,42.47
2022-11-21T01:19:16.264Z,43.80
2022-11-21T01:21:42.712Z,43.53
2022-11-21T01:24:11.270Z,45.08
2022-11-21T01:26:38.052Z,42.55
2022-11-21T01:29:05.171Z,45.10
2022-11-21T01:31:31.575Z,44.63
2022-11-21T01:33:59.154Z,45.05
2022-11-21T01:36:30.849Z,48.72
2022-11-21T01:38:59.273Z,33.75
2022-11-21T01:41:33.378Z,49.47
2022-11-21T01:44:09.644Z,48.80
2022-11-21T01:46:36.077Z,46.55
2022-11-21T01:49:22.237Z,47.92
2022-11-21T01:51:57.796Z,43.38
2022-11-21T01:54:34.991Z,46.53
2022-11-21T01:57:19.871Z,48.30
2022-11-21T01:59:57.145Z,43.65
2022-11-21T02:02:27.010Z,51.75
2022-11-21T02:04:53.733Z,55.03
2022-11-21T02:07:21.432Z,52.47
2022-11-21T02:09:51.892Z,49.38
2022-11-21T02:12:23.113Z,47.67
2022-11-21T02:14:49.994Z,48.63
2022-11-21T02:17:18.171Z,46.15
2022-11-21T02:19:50.601Z,51.92
2022-11-21T02:22:52.162Z,47.25
2022-11-21T02:25:24.241Z,51.38
2022-11-21T02:27:53.809Z,46.05
2022-11-21T02:30:20.269Z,50.45
2022-11-21T02:32:47.119Z,50.70
2022-11-21T02:35:15.984Z,44.67
2022-11-21T02:37:43.143Z,53.92
2022-11-21T02:40:15.520Z,49.92
2022-11-21T02:42:51.459Z,54.00
2022-11-21T02:45:22.687Z,49.95
2022-11-21T02:47:52.660Z,50.60
2022-11-21T02:50:28.721Z,51.25
2022-11-21T02:52:57.996Z,51.10
2022-11-21T02:55:25.397Z,48.83
2022-11-21T02:57:52.613Z,50.47
2022-11-21T03:00:19.771Z,55.90
2022-11-21T03:02:46.138Z,48.53
2022-11-21T03:05:15.205Z,51.00
2022-11-21T03:07:41.799Z,53.97
2022-11-21T03:10:08.603Z,51.83
2022-11-21T03:12:41.708Z,58.40
2022-11-21T03:15:10.990Z,61.17
2022-11-21T03:17:37.868Z,63.15
2022-11-21T03:20:05.305Z,62.97
2022-11-21T03:22:32.185Z,62.88
2022-11-21T03:24:58.572Z,64.35
2022-11-21T03:27:25.063Z,58.53
2022-11-21T03:29:51.444Z,54.45
2022-11-21T03:32:17.810Z,63.47
2022-11-21T03:34:44.263Z,53.20
2022-11-21T03:37:10.643Z,60.08
2022-11-21T03:39:37.021Z,57.80
2022-11-21T03:42:03.450Z,57.80
2022-11-21T03:44:30.157Z,56.30
2022-11-21T03:46:56.620Z,56.88
2022-11-21T03:49:22.998Z,59.17
2022-11-21T03:51:49.436Z,61.22
2022-11-21T03:54:15.847Z,60.25
2022-11-21T03:56:42.207Z,70.03
2022-11-21T03:59:08.573Z,55.97
2022-11-21T04:01:36.820Z,63.10
2022-11-21T04:04:03.650Z,60.72
2022-11-21T04:06:31.375Z,66.43
2022-11-21T04:08:57.781Z,56.67
2022-11-21T04:11:24.576Z,63.97
2022-11-21T04:13:54.425Z,65.05
2022-11-21T04:16:20.817Z,61.63
2022-11-21T04:18:47.192Z,64.50
2022-11-21T04:21:13.640Z,56.45
2022-11-21T04:23:39.996Z,63.70
2022-11-21T04:26:06.391Z,56.97
2022-11-21T04:28:32.984Z,65.20
2022-11-21T04:31:09.860Z,57.90
2022-11-21T04:33:37.160Z,59.40
2022-11-21T04:36:03.587Z,57.13
2022-11-21T04:38:29.942Z,60.75
2022-11-21T04:40:56.298Z,59.13
2022-11-21T04:43:22.661Z,56.45
2022-11-21T04:45:49.039Z,57.70
2022-11-21T04:48:15.392Z,59.50
2022-11-21T04:50:41.763Z,59.60
2022-11-21T04:53:08.144Z,57.60
2022-11-21T04:55:34.513Z,61.70
2022-11-21T04:58:00.943Z,54.53
2022-11-21T05:00:27.476Z,55.88
2022-11-21T05:02:53.834Z,58.22
2022-11-21T05:05:20.444Z,60.78
2022-11-21T05:07:46.860Z,62.55
2022-11-21T05:10:13.344Z,55.08
2022-11-21T05:12:58.242Z,66.50
2022-11-21T05:15:25.173Z,53.28
2022-11-21T05:17:51.942Z,65.78
2022-11-21T05:20:18.842Z,60.67
2022-11-21T05:22:49.770Z,56.13
2022-11-21T05:25:16.547Z,62.53
2022-11-21T05:27:42.987Z,59.47
2022-11-21T05:30:10.302Z,58.05
2022-11-21T05:32:36.759Z,59.03
2022-11-21T05:37:30.801Z,61.20
2022-11-21T05:39:57.135Z,61.10
2022-11-21T05:42:43.433Z,60.90
2022-11-21T05:45:10.168Z,65.30
2022-11-21T05:47:36.501Z,69.30
2022-11-21T05:50:02.975Z,64.50
2022-11-21T05:52:29.337Z,73.25
2022-11-21T05:54:55.660Z,66.85
2022-11-21T05:57:22.004Z,69.22
2022-11-21T05:59:48.344Z,70.78
2022-11-21T06:02:33.356Z,77.28
2022-11-21T06:04:59.714Z,76.03
2022-11-21T06:07:26.127Z,75.13
2022-11-21T06:09:52.606Z,77.22
2022-11-21T06:12:24.098Z,74.53
2022-11-21T06:14:51.698Z,86.82
2022-11-21T06:17:18.029Z,73.63
2022-11-21T06:19:44.349Z,75.03
2022-11-21T06:22:10.741Z,73.68
2022-11-21T06:24:37.158Z,71.60
2022-11-21T06:27:03.504Z,70.28
2022-11-21T06:29:29.850Z,71.28
2022-11-21T06:31:56.224Z,70.05
2022-11-21T06:34:22.630Z,72.10
2022-11-21T06:36:49.535Z,80.45
2022-11-21T06:39:16.133Z,65.78
2022-11-21T06:41:42.561Z,72.65
2022-11-21T06:44:08.983Z,68.22
2022-11-21T06:46:35.358Z,78.68
2022-11-21T06:49:01.730Z,70.97
2022-11-21T06:51:28.158Z,79.55
2022-11-21T06:53:59.038Z,75.70
2022-11-21T06:56:27.061Z,71.93
2022-11-21T06:58:53.554Z,73.07
2022-11-21T07:01:20.017Z,78.05
2022-11-21T07:03:46.543Z,69.05
2022-11-21T07:06:12.915Z,73.80
2022-11-21T07:08:42.628Z,82.05
2022-11-21T07:11:24.641Z,81.68
2022-11-21T07:16:17.799Z,70.30
2022-11-21T07:18:45.461Z,82.60
2022-11-21T07:21:11.862Z,88.60
2022-11-21T07:23:38.299Z,78.78
2022-11-21T07:26:06.603Z,73.85
2022-11-21T07:28:33.909Z,78.03
2022-11-21T07:31:01.179Z,83.20
2022-11-21T07:33:27.800Z,80.18
2022-11-21T07:35:57.807Z,78.82
2022-11-21T07:38:25.829Z,80.18
2022-11-21T07:40:52.683Z,74.25
2022-11-21T07:43:19.205Z,72.90
2022-11-21T07:45:45.553Z,75.50
2022-11-21T07:48:12.911Z,82.63
2022-11-21T07:50:39.517Z,96.80
2022-11-21T07:53:07.712Z,71.50
2022-11-21T07:55:39.103Z,80.00
2022-11-21T07:58:08.802Z,86.97
2022-11-21T08:00:36.687Z,74.18
2022-11-21T08:03:04.431Z,86.10
2022-11-21T08:05:30.802Z,84.13
2022-11-21T08:07:57.161Z,89.05
2022-11-21T08:10:23.591Z,69.28
2022-11-21T08:12:50.073Z,73.32
2022-11-21T08:15:16.502Z,71.18
2022-11-21T08:17:44.158Z,82.30
2022-11-21T08:20:11.180Z,75.30
2022-11-21T08:22:39.497Z,73.47
2022-11-21T08:25:06.545Z,66.22
2022-11-21T08:27:32.890Z,88.47
2022-11-21T08:29:59.257Z,92.07
2022-11-21T08:32:25.753Z,75.57
2022-11-21T08:34:52.150Z,66.45
2022-11-21T08:37:18.490Z,73.40
2022-11-21T08:39:44.859Z,63.60
2022-11-21T08:42:11.280Z,72.55
2022-11-21T08:44:37.666Z,66.50
2022-11-21T08:47:05.035Z,63.63
2022-11-21T08:49:31.424Z,72.82
2022-11-21T08:51:57.806Z,68.55
2022-11-21T08:54:24.595Z,68.50
2022-11-21T08:56:51.253Z,62.80
2022-11-21T08:59:17.917Z,58.25
2022-11-21T09:01:44.590Z,63.88
2022-11-21T09:04:12.447Z,60.08
2022-11-21T09:06:38.805Z,67.35
2022-11-21T09:09:06.254Z,62.30
2022-11-21T09:11:32.669Z,61.58
2022-11-21T09:14:17.855Z,60.35
2022-11-21T09:17:03.030Z,70.47
2022-11-21T09:19:29.733Z,67.20
2022-11-21T09:21:56.843Z,59.75
2022-11-21T09:24:23.199Z,68.45
2022-11-21T09:26:49.562Z,75.75
2022-11-21T09:29:16.285Z,71.03
2022-11-21T09:31:43.417Z,63.35
2022-11-21T09:34:10.028Z,64.90
2022-11-21T09:36:36.655Z,71.70
2022-11-21T09:39:03.836Z,62.00
2022-11-21T09:41:54.444Z,68.88
2022-11-21T09:44:36.007Z,58.80
2022-11-21T09:47:15.401Z,54.25
2022-11-21T09:49:44.067Z,66.15
2022-11-21T09:52:13.872Z,66.97
2022-11-21T09:54:50.142Z,67.80
2022-11-21T09:57:19.122Z,66.53
2022-11-21T09:59:47.116Z,62.05
2022-11-21T10:02:21.579Z,64.43
2022-11-21T10:04:48.420Z,72.70
2022-11-21T10:07:30.777Z,63.38
2022-11-21T10:12:49.344Z,62.10
2022-11-21T10:15:33.943Z,61.60
2022-11-21T10:18:19.001Z,65.18
2022-11-21T10:20:54.778Z,64.80
2022-11-21T10:23:39.557Z,64.80
2022-11-21T10:26:17.097Z,65.85
2022-11-21T10:28:58.647Z,62.88
2022-11-21T10:31:25.856Z,66.43
2022-11-21T10:33:53.725Z,63.67
2022-11-21T10:36:27.476Z,68.18
2022-11-21T10:38:59.375Z,62.60
2022-11-21T10:41:31.593Z,63.47
2022-11-21T10:46:56.813Z,62.83
2022-11-21T10:49:24.510Z,63.53
2022-11-21T10:52:02.358Z,60.15
2022-11-21T10:54:34.679Z,61.80
2022-11-21T10:57:18.755Z,67.10
2022-11-21T11:00:01.331Z,62.33
2022-11-21T11:02:28.044Z,62.55
2022-11-21T11:05:16.160Z,60.55
2022-11-21T11:07:42.808Z,60.15
2022-11-21T11:10:27.544Z,61.28
2022-11-21T11:13:38.725Z,55.60
2022-11-21T11:16:11.824Z,57.45
2022-11-21T11:18:45.408Z,62.25
2022-11-21T11:21:17.176Z,58.53
2022-11-21T11:23:44.247Z,65.80
2022-11-21T11:26:21.998Z,72.57
2022-11-21T11:28:48.688Z,72.35
2022-11-21T11:31:15.110Z,62.53
2022-11-21T11:33:47.515Z,66.90
2022-11-21T11:36:15.076Z,63.03
2022-11-21T11:39:10.763Z,83.22
2022-11-21T11:42:29.490Z,71.65
2022-11-21T11:45:32.437Z,70.63
2022-11-21T11:48:12.387Z,69.32
2022-11-21T11:50:49.310Z,64.65
2022-11-21T11:53:20.769Z,70.05
2022-11-21T11:55:53.058Z,61.90
2022-11-21T12:01:01.069Z,55.58
2022-11-21T12:03:59.127Z,62.92
2022-11-21T12:07:10.714Z,61.90
2022-11-21T12:09:48.979Z,61.95
2022-11-21T12:12:28.207Z,55.40
2022-11-21T12:15:20.956Z,70.00
2022-11-21T12:18:13.098Z,94.75
2022-11-21T12:20:46.222Z,68.57
2022-11-21T12:23:13.270Z,53.65
2022-11-21T12:25:56.613Z,54.33
2022-11-21T12:28:48.109Z,63.58
2022-11-21T12:31:22.169Z,53.20
2022-11-21T12:33:58.713Z,62.97
2022-11-21T12:36:32.201Z,61.90
2022-11-21T12:39:29.481Z,50.88
2022-11-21T12:42:22.803Z,58.55
2022-11-21T12:45:32.162Z,56.03
2022-11-21T12:48:25.992Z,51.88
2022-11-21T12:51:35.846Z,54.97
2022-11-21T12:54:37.746Z,51.13
2022-11-21T12:57:14.133Z,50.53
2022-11-21T12:59:46.363Z,61.30
2022-11-21T13:04:47.014Z,50.03
2022-11-21T13:07:14.074Z,54.90
2022-11-21T13:09:42.001Z,50.00
2022-11-21T13:12:34.984Z,57.67
2022-11-21T13:15:04.311Z,49.90
2022-11-21T13:17:36.613Z,56.33
2022-11-21T13:20:20.895Z,57.80
2022-11-21T13:22:47.355Z,52.72
2022-11-21T13:25:38.223Z,51.50
2022-11-21T13:28:13.655Z,54.08
2022-11-21T13:30:53.487Z,53.00
2022-11-21T13:33:35.152Z,74.10
2022-11-21T13:36:11.132Z,62.25
2022-11-21T13:38:53.645Z,70.47
2022-11-21T13:41:53.788Z,60.53
2022-11-21T13:44:32.201Z,55.58
2022-11-21T13:47:10.452Z,67.40
2022-11-21T13:49:51.035Z,71.80
2022-11-21T13:52:39.024Z,55.58
2022-11-21T13:55:25.860Z,66.80
2022-11-21T13:58:02.446Z,63.50
2022-11-21T14:00:56.196Z,63.70
2022-11-21T14:03:50.559Z,70.57
2022-11-21T14:06:32.630Z,62.78
2022-11-21T14:11:50.886Z,48.55
2022-11-21T14:14:49.694Z,68.43
2022-11-21T14:17:41.955Z,64.30
2022-11-21T14:20:21.731Z,65.88
2022-11-21T14:23:12.494Z,64.30
2022-11-21T14:25:48.648Z,47.20
2022-11-21T14:28:17.677Z,47.53
2022-11-21T14:30:44.442Z,50.97
2022-11-21T14:33:30.088Z,55.63
2022-11-21T14:35:59.486Z,53.22
2022-11-21T14:38:26.512Z,52.78
2022-11-21T14:41:24.928Z,45.35
2022-11-21T14:43:57.235Z,54.72
2022-11-21T14:48:52.357Z,56.10
2022-11-21T14:51:20.674Z,52.58
2022-11-21T14:53:47.948Z,44.92
2022-11-21T14:56:23.419Z,50.55
2022-11-21T14:58:51.324Z,51.47
2022-11-21T15:01:21.797Z,39.83
2022-11-21T15:03:59.320Z,47.78
2022-11-21T15:06:29.977Z,46.58
2022-11-21T15:10:19.317Z,48.83
2022-11-21T15:12:05.269Z,101.13
2022-11-21T15:14:36.338Z,71.45
2022-11-21T15:17:05.316Z,56.45
2022-11-21T15:19:32.647Z,57.83
2022-11-21T15:22:27.252Z,55.20
2022-11-21T15:25:08.409Z,50.65
2022-11-21T15:27:35.158Z,61.38
2022-11-21T15:30:20.835Z,51.15
2022-11-21T15:33:12.267Z,61.67
2022-11-21T15:35:38.538Z,90.70
2022-11-21T15:38:22.855Z,83.95
2022-11-21T15:41:04.381Z,73.85
2022-11-21T15:43:38.056Z,68.75
2022-11-21T15:46:14.205Z,64.43
2022-11-21T15:48:40.691Z,52.80
2022-11-21T15:51:09.761Z,60.15
2022-11-21T15:53:36.091Z,53.38
2022-11-21T15:56:02.417Z,51.58
2022-11-21T15:58:28.754Z,52.83
2022-11-21T16:00:55.199Z,61.85
2022-11-21T16:03:21.672Z,49.13
2022-11-21T16:05:48.093Z,50.63
2022-11-21T16:08:14.445Z,53.60
2022-11-21T16:10:40.815Z,62.95
2022-11-21T16:13:07.139Z,82.30
2022-11-21T16:15:34.638Z,81.90
2022-11-21T16:18:00.971Z,87.30
2022-11-21T16:20:28.564Z,88.15
2022-11-21T16:22:55.279Z,74.78
2022-11-21T16:25:21.635Z,64.97
2022-11-21T16:27:48.068Z,59.25
2022-11-21T16:30:14.564Z,51.75
2022-11-21T16:32:40.896Z,62.17
2022-11-21T16:35:07.629Z,62.95
2022-11-21T16:37:34.157Z,60.45
2022-11-21T16:40:00.656Z,55.42
2022-11-21T16:42:27.024Z,60.65
2022-11-21T16:44:53.405Z,65.53
2022-11-21T16:47:19.885Z,75.53
2022-11-21T16:49:48.271Z,75.63
2022-11-21T16:52:15.660Z,86.70
2022-11-21T16:54:42.064Z,85.10
2022-11-21T16:57:08.629Z,88.97
2022-11-21T16:59:35.192Z,68.43
2022-11-21T17:02:01.737Z,58.17
2022-11-21T17:04:28.102Z,60.92
2022-11-21T17:06:54.539Z,60.95
2022-11-21T17:09:21.039Z,58.58
2022-11-21T17:11:47.461Z,56.30
2022-11-21T17:14:13.883Z,55.40
2022-11-21T17:16:41.751Z,49.58
2022-11-21T17:19:10.873Z,55.85
2022-11-21T17:21:37.283Z,54.58
2022-11-21T17:24:03.669Z,47.05
2022-11-21T17:26:30.240Z,49.38
2022-11-21T17:28:58.868Z,49.67
2022-11-21T17:31:25.514Z,42.00
2022-11-21T17:33:52.294Z,38.67
2022-11-21T17:36:21.232Z,35.33
2022-11-21T17:38:47.897Z,40.53
2022-11-21T17:41:16.689Z,40.35
2022-11-21T17:43:43.810Z,38.65
2022-11-21T17:46:16.813Z,45.42
2022-11-21T17:48:43.855Z,40.55
2022-11-21T17:51:15.816Z,43.05
2022-11-21T17:53:44.105Z,42.05
2022-11-21T17:56:13.770Z,40.47
2022-11-21T17:58:40.377Z,47.00
2022-11-21T18:01:08.012Z,49.72
2022-11-21T18:03:35.592Z,55.72
2022-11-21T18:06:04.429Z,56.70
2022-11-21T18:08:44.963Z,56.22
2022-11-21T18:11:12.742Z,50.83
2022-11-21T18:13:39.602Z,51.38
2022-11-21T18:16:09.067Z,46.20
2022-11-21T18:18:36.053Z,46.65
2022-11-21T18:21:13.386Z,36.70
2022-11-21T18:23:40.117Z,39.33
2022-11-21T18:26:09.580Z,40.22
2022-11-21T18:28:36.010Z,36.80
2022-11-21T18:31:09.344Z,36.05
2022-11-21T18:33:36.602Z,57.75
2022-11-21T18:36:04.300Z,31.52
2022-11-21T18:38:48.208Z,33.22
2022-11-21T18:41:20.781Z,29.45
2022-11-21T18:43:55.131Z,31.15
2022-11-21T18:46:23.356Z,29.33
2022-11-21T18:49:04.141Z,27.27
2022-11-21T18:51:31.932Z,31.35
2022-11-21T18:53:59.969Z,31.75
2022-11-21T18:56:26.638Z,28.65
2022-11-21T18:58:58.315Z,38.65
2022-11-21T19:01:27.597Z,40.38
2022-11-21T19:03:55.670Z,35.20
2022-11-21T19:06:23.485Z,34.63
2022-11-21T19:08:52.997Z,35.85
2022-11-21T19:11:20.872Z,31.92
2022-11-21T19:13:47.886Z,35.17
2022-11-21T19:16:18.924Z,35.95
2022-11-21T19:18:59.903Z,40.10
2022-11-21T19:21:35.399Z,35.25
2022-11-21T19:24:01.802Z,44.05
2022-11-21T19:26:29.026Z,41.55
2022-11-21T19:28:55.396Z,47.33
2022-11-21T19:31:21.798Z,49.80
2022-11-21T19:33:48.156Z,68.25
2022-11-21T19:36:22.155Z,53.13
2022-11-21T19:38:50.934Z,52.60
2022-11-21T19:41:20.735Z,48.97
2022-11-21T19:43:49.477Z,49.55
2022-11-21T19:46:21.119Z,53.92
2022-11-21T19:48:52.318Z,48.13
2022-11-21T19:51:19.933Z,55.10
2022-11-21T19:53:46.884Z,45.13
2022-11-21T19:56:17.415Z,45.63
2022-11-21T19:58:44.867Z,42.53
2022-11-21T20:01:15.408Z,42.67
2022-11-21T20:03:45.208Z,34.40
2022-11-21T20:06:20.048Z,33.08
2022-11-21T20:08:55.500Z,30.75
2022-11-21T20:11:23.016Z,30.90
2022-11-21T20:13:50.470Z,32.85
2022-11-21T20:16:23.088Z,34.25
2022-11-21T20:18:50.436Z,33.70
2022-11-21T20:21:17.706Z,26.70
2022-11-21T20:23:46.086Z,36.00
2022-11-21T20:26:13.775Z,36.30
2022-11-21T20:28:40.345Z,35.40
2022-11-21T20:31:09.583Z,33.45
2022-11-21T20:33:37.521Z,40.50
2022-11-21T20:36:05.854Z,35.67
2022-11-21T20:38:32.213Z,30.58
2022-11-21T20:40:58.631Z,36.63
2022-11-21T20:43:33.389Z,39.08
2022-11-21T20:46:17.010Z,29.98
2022-11-21T20:48:46.514Z,28.17
2022-11-21T20:54:03.297Z,28.65
2022-11-21T20:56:33.338Z,23.17
2022-11-21T20:58:59.900Z,23.90
2022-11-21T21:01:27.626Z,25.48
2022-11-21T21:03:54.282Z,22.63
2022-11-21T21:06:21.039Z,23.17
2022-11-21T21:08:50.001Z,23.52
2022-11-21T21:11:44.476Z,24.58
2022-11-21T21:14:04.727Z,25.73
2022-11-21T21:16:34.255Z,24.58
2022-11-21T21:19:00.628Z,25.38
2022-11-21T21:21:28.353Z,16.15
2022-11-21T21:23:56.210Z,22.17
2022-11-21T21:26:25.619Z,16.55
2022-11-21T21:28:52.462Z,23.40
2022-11-21T21:31:20.595Z,16.42
2022-11-21T21:33:47.185Z,17.02
2022-11-21T21:36:18.747Z,20.70
2022-11-21T21:38:45.736Z,18.33
2022-11-21T21:41:13.788Z,17.77
2022-11-21T21:43:40.975Z,22.23
2022-11-21T21:46:08.008Z,17.35
2022-11-21T21:48:34.703Z,23.00
2022-11-21T21:51:03.309Z,24.98
2022-11-21T21:53:30.046Z,19.65
2022-11-21T21:56:00.634Z,20.10
2022-11-21T21:58:30.275Z,18.08
2022-11-21T22:01:10.994Z,21.45
2022-11-21T22:03:37.959Z,19.83
2022-11-21T22:06:05.732Z,17.45
2022-11-21T22:08:33.553Z,19.25
2022-11-21T22:11:07.332Z,16.90
2022-11-21T22:13:34.604Z,17.13
2022-11-21T22:16:01.634Z,16.42
2022-11-21T22:18:28.824Z,19.38
2022-11-21T22:20:55.525Z,20.35
2022-11-21T22:23:22.213Z,19.60
2022-11-21T22:25:48.975Z,24.17
2022-11-21T22:28:15.649Z,58.33
2022-11-21T22:30:42.091Z,46.17
2022-11-21T22:33:08.452Z,19.05
2022-11-21T22:35:34.926Z,24.40
2022-11-21T22:38:01.291Z,19.88
2022-11-21T22:40:27.684Z,18.63
2022-11-21T22:42:54.037Z,12.48
2022-11-21T22:45:20.387Z,14.77
2022-11-21T22:47:48.250Z,13.88
2022-11-21T22:50:15.451Z,9.80
2022-11-21T22:52:41.874Z,10.98
2022-11-21T22:55:08.701Z,9.20
2022-11-21T22:57:35.087Z,9.20
2022-11-21T23:00:02.145Z,6.20
2022-11-21T23:02:28.515Z,10.00
2022-11-21T23:04:54.908Z,6.47
2022-11-21T23:07:21.344Z,4.97
2022-11-21T23:09:47.726Z,7.40
2022-11-21T23:12:14.143Z,8.82
2022-11-21T23:14:40.481Z,6.97
2022-11-21T23:17:06.833Z,5.07
2022-11-21T23:19:33.192Z,9.52
2022-11-21T23:21:59.614Z,10.95
2022-11-21T23:24:25.949Z,7.07
2022-11-21T23:26:52.383Z,5.50
2022-11-21T23:29:18.730Z,6.30
2022-11-21T23:31:45.091Z,6.43
2022-11-21T23:34:11.645Z,4.10
2022-11-21T23:36:38.058Z,7.22
2022-11-21T23:39:04.803Z,5.65
2022-11-21T23:41:31.190Z,3.30
2022-11-21T23:43:59.675Z,5.68
2022-11-21T23:46:27.477Z,5.03
2022-11-21T23:48:53.872Z,3.95
2022-11-21T23:51:20.274Z,5.18
2022-11-21T23:53:46.792Z,8.38
2022-11-21T23:56:13.259Z,7.35
2022-11-21T23:58:39.674Z,7.25
